Time;durP1;ratioP1;P1;durP2;ratioP2;P2;SDS_P1;SDS_P2;PMS_P1;PMS_P2;Temp;Humidity;BMP_temperature;BMP_pressure;BME280_temperature;BME280_humidity;BME280_pressure;Samples;Min_cycle;Max_cycle;Signal;HPM_P1;HPM_P2
2021/11/26 00:05:19;;;;;;;41.60;27.00;;;;;;;1.17;75.00;98438.27;435452;1309;143109;-60
2021/11/26 00:15:38;;;;;;;40.50;25.80;;;;;;;1.14;74.92;98428.03;430359;1309;143082;-60
2021/11/26 00:25:44;;;;;;;35.10;24.50;;;;;;;1.10;74.97;98427.19;432463;1309;141851;-60
2021/11/26 00:35:50;;;;;;;39.00;23.70;;;;;;;1.07;75.32;98414.73;435027;1307;143127;-60
2021/11/26 00:45:56;;;;;;;35.30;24.90;;;;;;;1.09;75.19;98413.08;435326;1309;142096;-61
2021/11/26 00:56:03;;;;;;;36.00;23.20;;;;;;;1.10;75.01;98412.52;434635;1312;142201;-60
2021/11/26 01:06:09;;;;;;;33.40;23.70;;;;;;;1.08;75.04;98402.94;434986;1309;143801;-60
2021/11/26 01:16:16;;;;;;;33.80;23.30;;;;;;;1.08;75.18;98400.54;432546;1309;142166;-59
2021/11/26 01:26:22;;;;;;;35.30;23.70;;;;;;;1.06;75.12;98397.35;433357;1312;141859;-59
2021/11/26 01:36:28;;;;;;;36.00;25.60;;;;;;;1.03;75.23;98383.70;435156;1307;142501;-60
2021/11/26 01:46:38;;;;;;;31.50;22.00;;;;;;;0.92;75.23;98362.45;431654;1309;145937;-60
2021/11/26 01:56:45;;;;;;;34.40;23.40;;;;;;;0.83;75.46;98352.02;424056;1309;142271;-58
2021/11/26 02:06:51;;;;;;;33.90;25.10;;;;;;;0.77;75.73;98349.17;429963;1309;142532;-59
2021/11/26 02:16:57;;;;;;;34.10;26.00;;;;;;;0.77;75.80;98349.70;433962;1311;142323;-60
2021/11/26 02:27:04;;;;;;;36.80;24.60;;;;;;;0.80;75.76;98352.11;434399;1310;145140;-60
2021/11/26 02:37:10;;;;;;;32.10;24.10;;;;;;;0.85;75.80;98331.41;435795;1309;141918;-60
2021/11/26 02:47:16;;;;;;;39.20;25.90;;;;;;;0.82;75.93;98318.25;435860;1309;143272;-60
2021/11/26 02:57:23;;;;;;;37.50;24.90;;;;;;;0.86;76.04;98305.19;434056;1309;142757;-61
2021/11/26 03:07:30;;;;;;;35.70;25.40;;;;;;;0.85;76.05;98288.50;433212;1310;142352;-59
2021/11/26 03:17:36;;;;;;;36.20;24.70;;;;;;;0.84;76.00;98283.70;419518;1309;142114;-60
2021/11/26 03:27:44;;;;;;;34.80;26.10;;;;;;;0.79;76.04;98295.34;434172;1309;306237;-60
2021/11/26 03:37:51;;;;;;;35.80;26.30;;;;;;;0.74;76.12;98308.82;423108;1309;142272;-59
2021/11/26 03:47:56;;;;;;;;;;;;;;;0.73;76.17;98299.23;433970;1308;143705;-59
2021/11/26 03:58:01;;;;;;;;;;;;;;;0.73;76.16;98289.92;436185;1306;128397;-60
2021/11/26 04:08:06;;;;;;;;;;;;;;;0.76;75.86;98285.83;435939;1309;129383;-60
2021/11/26 04:18:11;;;;;;;;;;;;;;;0.78;75.93;98274.70;435505;1310;129174;-60
2021/11/26 04:28:15;;;;;;;;;;;;;;;0.79;75.77;98257.40;436164;1309;129256;-60
2021/11/26 04:38:20;;;;;;;;;;;;;;;0.82;75.86;98240.92;436228;1310;129788;-60
2021/11/26 04:48:25;;;;;;;;;;;;;;;0.85;75.86;98234.92;433181;1309;129567;-60
2021/11/26 04:58:34;;;;;;;;;;;;;;;0.91;75.77;98236.91;434189;1310;128928;-62
2021/11/26 05:08:39;;;;;;;;;;;;;;;0.92;75.68;98230.30;431284;1307;128600;-60
2021/11/26 05:18:45;;;;;;;;;;;;;;;0.90;75.62;98226.25;435920;1309;127716;-59
2021/11/26 05:28:51;;;;;;;;;;;;;;;0.93;75.60;98227.16;436368;1309;128123;-60
2021/11/26 05:38:56;;;;;;;;;;;;;;;0.94;75.65;98226.93;435512;1309;128437;-60
2021/11/26 05:49:00;;;;;;;;;;;;;;;0.94;75.38;98208.51;433074;1310;127843;-61
2021/11/26 05:59:07;;;;;;;;;;;;;;;0.92;75.45;98198.09;433859;1310;128626;-61
2021/11/26 06:09:11;;;;;;;;;;;;;;;0.91;75.50;98192.78;432859;1315;128575;-60
2021/11/26 06:19:16;;;;;;;;;;;;;;;0.93;75.49;98203.04;434987;1315;128412;-59
2021/11/26 06:29:20;;;;;;;;;;;;;;;0.97;75.65;98206.96;436103;1309;129480;-60
2021/11/26 06:39:25;;;;;;;;;;;;;;;1.04;75.50;98211.45;434199;1311;128159;-60
2021/11/26 06:49:29;;;;;;;;;;;;;;;1.04;75.53;98209.60;435510;1308;127532;-60
2021/11/26 06:59:34;;;;;;;;;;;;;;;1.08;75.46;98201.30;435663;1313;128864;-61
2021/11/26 07:09:41;;;;;;;;;;;;;;;1.21;75.48;98183.10;423451;1311;128579;-59
2021/11/26 07:19:47;;;;;;;;;;;;;;;1.32;75.33;98189.17;434334;1314;127951;-61
2021/11/26 07:29:54;;;;;;;;;;;;;;;1.40;75.35;98187.89;421101;1312;130021;-60
2021/11/26 07:39:59;;;;;;;;;;;;;;;1.52;75.08;98189.36;434852;1313;128725;-60
2021/11/26 07:50:04;;;;;;;;;;;;;;;1.64;75.09;98177.19;435471;1310;128136;-62
2021/11/26 08:00:10;;;;;;;;;;;;;;;1.78;74.79;98172.38;434299;1311;131323;-66
2021/11/26 08:10:16;;;;;;;;;;;;;;;1.88;74.68;98173.41;435633;1310;128985;-65
2021/11/26 08:20:22;;;;;;;;;;;;;;;2.03;74.52;98172.70;425910;1310;127561;-70
2021/11/26 08:30:27;;;;;;;;;;;;;;;2.15;74.29;98166.91;429593;1309;130033;-66
2021/11/26 08:40:32;;;;;;;;;;;;;;;2.32;74.30;98169.46;433300;1312;128175;-70
2021/11/26 08:50:36;;;;;;;;;;;;;;;2.31;74.00;98173.28;427272;1310;127633;-72
2021/11/26 09:00:42;;;;;;;;;;;;;;;2.29;74.01;98164.44;428736;1309;128251;-63
2021/11/26 09:10:48;;;;;;;;;;;;;;;2.29;74.01;98159.76;419111;1310;128736;-64
2021/11/26 09:20:53;;;;;;;;;;;;;;;2.41;73.96;98125.63;420744;1309;10125922;-61
2021/11/26 09:30:58;;;;;;;;;;;;;;;2.70;74.08;98104.18;436133;1309;127776;-69
2021/11/26 09:41:03;;;;;;;;;;;;;;;2.92;73.67;98094.13;422850;1310;129516;-61
2021/11/26 09:51:28;;;;;;;;;;;;;;;3.27;73.61;98077.30;418286;1309;129630;-61
2021/11/26 10:01:32;;;;;;;;;;;;;;;3.49;73.01;98063.07;419156;1310;127356;-62
2021/11/26 10:11:47;;;;;;;;;;;;;;;3.57;73.10;98053.25;435388;1306;128687;-61
2021/11/26 10:21:51;;;;;;;;;;;;;;;3.57;72.77;98040.27;434421;1309;128208;-62
2021/11/26 10:32:04;;;;;;;;;;;;;;;3.55;72.55;98026.21;420853;1309;127578;-61
2021/11/26 10:42:09;;;;;;;;;;;;;;;3.56;72.67;98006.39;425119;1310;128507;-62
2021/11/26 11:02:55;;;;;;;;;;;;;;;3.60;72.24;97971.70;423771;1310;132594;-61
2021/11/26 11:13:01;;;;;;;;;;;;;;;3.77;72.17;97959.60;435460;1310;127892;-62
2021/11/26 11:23:06;;;;;;;;;;;;;;;3.82;71.86;97944.59;435018;1309;233932;-61
2021/11/26 11:33:12;;;;;;;;;;;;;;;3.76;71.63;97928.54;428255;1309;128688;-61
2021/11/26 11:43:18;;;;;;;;;;;;;;;3.78;71.72;97905.21;434454;1310;128256;-61
2021/11/26 11:53:29;;;;;;;;;;;;;;;3.81;71.43;97892.56;434749;1307;127548;-61
2021/11/26 12:03:38;;;;;;;;;;;;;;;3.85;71.59;97881.42;435394;1310;128152;-61
2021/11/26 12:13:44;;;;;;;;;;;;;;;3.85;71.08;97873.44;431154;1309;128351;-60
2021/11/26 12:24:04;;;;;;;;;;;;;;;3.69;70.89;97860.09;433961;1307;128403;-65
2021/11/26 12:34:10;;;;;;;;;;;;;;;3.51;71.61;97838.21;427947;1309;10002226;-61
2021/11/26 12:44:16;;;;;;;;;;;;;;;3.19;71.77;97822.20;428990;1309;129982;-64
2021/11/26 12:54:27;;;;;;;;;;;;;;;2.89;72.12;97808.41;434431;1307;127889;-63
2021/11/26 13:04:32;;;;;;;;;;;;;;;2.79;72.32;97798.98;421911;1312;126708;-58
2021/11/26 13:14:51;;;;;;;;;;;;;;;2.72;72.66;97784.90;428243;1309;128154;-60
2021/11/26 13:24:56;;;;;;;;;;;;;;;2.63;72.76;97757.29;435986;1309;128040;-58
2021/11/26 13:35:00;;;;;;;;;;;;;;;2.45;73.02;97738.16;435980;1309;127925;-60
2021/11/26 13:45:06;;;;;;;;;;;;;;;2.42;72.92;97712.79;435311;1308;128715;-57
2021/11/26 13:55:23;;;;;;;;;;;;;;;2.38;72.97;97697.85;430072;1309;127852;-52
2021/11/26 14:05:29;;;;;;;;;;;;;;;2.28;72.88;97698.77;433531;1309;128206;-57
2021/11/26 14:15:34;;;;;;;;;;;;;;;2.19;72.96;97696.38;433221;1310;127696;-64
2021/11/26 14:25:40;;;;;;;;;;;;;;;2.15;73.36;97689.39;430005;1310;128198;-61
2021/11/26 14:35:47;;;;;;;;;;;;;;;2.04;73.78;97689.48;434344;1309;128356;-62
2021/11/26 14:45:54;;;;;;;;;;;;;;;1.89;74.31;97681.91;436094;1308;128764;-60
2021/11/26 14:55:59;;;;;;;;;;;;;;;1.68;74.83;97677.45;435942;1309;128566;-59
2021/11/26 15:06:04;;;;;;;;;;;;;;;1.51;75.31;97673.06;435586;1309;127988;-58
2021/11/26 15:16:09;;;;;;;;;;;;;;;1.40;75.76;97667.30;436156;1309;129502;-58
2021/11/26 15:26:14;;;;;;;;;;;;;;;1.41;76.32;97656.90;423264;1309;128026;-58
2021/11/26 15:36:19;;;;;;;;;;;;;;;1.42;76.54;97642.02;434702;1307;127337;-59
2021/11/26 15:46:24;;;;;;;;;;;;;;;1.41;76.73;97625.52;434150;1309;128262;-64
2021/11/26 15:56:30;;;;;;;;;;;;;;;1.30;76.93;97613.74;434805;1309;128067;-64
2021/11/26 16:06:35;;;;;;;;;;;;;;;1.13;77.34;97595.61;433587;1307;130278;-62
2021/11/26 16:16:43;;;;;;;;;;;;;;;1.03;77.53;97582.72;430712;1307;137649;-60
2021/11/26 16:26:48;;;;;;;;;;;;;;;1.04;77.89;97570.45;428948;1309;127756;-62
2021/11/26 16:36:56;;;;;;;;;;;;;;;1.01;78.09;97558.88;434442;1310;131753;-61
2021/11/26 16:47:01;;;;;;;;;;;;;;;0.93;78.24;97540.86;435605;1310;127994;-59
2021/11/26 16:57:07;;;;;;;;;;;;;;;0.86;78.56;97526.98;425068;1309;128540;-61
2021/11/26 17:07:13;;;;;;;;;;;;;;;0.80;78.68;97508.08;434906;1306;127477;-60
2021/11/26 17:17:33;;;;;;;;;;;;;;;0.73;78.91;97487.45;424588;1309;128218;-60
2021/11/26 17:27:39;;;;;;;;;;;;;;;0.64;79.05;97467.42;429407;1309;128459;-60
2021/11/26 17:37:44;;;;;;;;;;;;;;;0.57;79.48;97453.37;436288;1307;127825;-61
2021/11/26 17:47:49;;;;;;;;;;;;;;;0.46;79.59;97437.15;435517;1309;128777;-60
2021/11/26 17:57:55;;;;;;;;;;;;;;;0.36;79.70;97411.89;435109;1307;127722;-59
2021/11/26 18:08:00;;;;;;;;;;;;;;;0.33;79.90;97401.55;434185;1312;129478;-60
2021/11/26 18:18:05;;;;;;;;;;;;;;;0.37;80.16;97387.90;433485;1310;128238;-60
2021/11/26 18:28:10;;;;;;;;;;;;;;;0.37;80.32;97369.84;435218;1310;127589;-60
2021/11/26 18:38:15;;;;;;;;;;;;;;;0.37;80.40;97362.77;435951;1307;127470;-61
2021/11/26 18:48:21;;;;;;;;;;;;;;;0.39;80.45;97352.96;433130;1309;128389;-60
2021/11/26 18:58:25;;;;;;;;;;;;;;;0.40;80.44;97344.66;435335;1309;127444;-60
2021/11/26 19:08:30;;;;;;;;;;;;;;;0.39;80.50;97340.59;436128;1309;127437;-64
2021/11/26 19:18:37;;;;;;;;;;;;;;;0.43;80.56;97342.27;428418;1310;129104;-63
2021/11/26 19:28:42;;;;;;;;;;;;;;;0.49;80.62;97331.58;419563;1309;337179;-64
2021/11/26 19:38:46;;;;;;;;;;;;;;;0.51;80.78;97325.60;433014;1309;128006;-64
2021/11/26 19:49:10;;;;;;;;;;;;;;;0.59;80.71;97302.28;426461;1312;128038;-65
2021/11/26 19:59:15;;;;;;;;;;;;;;;0.63;80.66;97284.47;436197;1309;127944;-66
2021/11/26 20:09:21;;;;;;;;;;;;;;;0.57;80.58;97268.63;435465;1306;128824;-65
2021/11/26 20:19:26;;;;;;;;;;;;;;;0.51;80.69;97246.45;434821;1309;130459;-61
2021/11/26 20:29:31;;;;;;;;;;;;;;;0.39;80.92;97227.84;435108;1309;127800;-62
2021/11/26 20:39:39;;;;;;;;;;;;;;;0.31;81.00;97212.70;432962;1310;128071;-62
2021/11/26 20:49:43;;;;;;;;;;;;;;;0.23;81.11;97200.60;435841;1309;128895;-61
2021/11/26 20:59:48;;;;;;;;;;;;;;;0.14;81.34;97185.16;435587;1309;129260;-61
2021/11/26 21:09:53;;;;;;;;;;;;;;;0.04;81.56;97172.30;434384;1309;129477;-62
2021/11/26 21:20:01;;;;;;;;;;;;;;;0.00;81.87;97155.16;435723;1309;128832;-62
2021/11/26 21:30:07;;;;;;;;;;;;;;;-0.05;81.84;97148.38;433494;1313;128566;-62
2021/11/26 21:40:14;;;;;;;;;;;;;;;-0.09;81.90;97134.86;431538;1309;129915;-61
2021/11/26 21:50:19;;;;;;;;;;;;;;;-0.16;82.03;97123.06;434513;1310;128738;-60
2021/11/26 22:00:26;;;;;;;;;;;;;;;-0.19;82.46;97121.17;419655;1309;128144;-61
2021/11/26 22:10:31;;;;;;;;;;;;;;;-0.21;82.47;97108.97;425784;1307;127638;-61
2021/11/26 22:20:37;;;;;;;;;;;;;;;-0.24;82.74;97095.06;419866;1312;128168;-62
2021/11/26 22:30:41;;;;;;;;;;;;;;;-0.29;82.42;97089.45;419211;1312;128542;-62
2021/11/26 22:40:47;;;;;;;;;;;;;;;-0.31;82.70;97079.92;431887;1312;129006;-62
2021/11/26 22:50:52;;;;;;;;;;;;;;;-0.29;82.70;97070.35;434539;1312;130708;-61
2021/11/26 23:00:57;;;;;;;;;;;;;;;-0.27;82.77;97068.52;433544;1313;127760;-62
2021/11/26 23:11:03;;;;;;;;;;;;;;;-0.27;83.04;97063.40;422699;1312;128391;-62
2021/11/26 23:21:10;;;;;;;;;;;;;;;-0.28;82.82;97055.36;418248;1312;172191;-61
2021/11/26 23:31:15;;;;;;;;;;;;;;;-0.31;82.98;97058.94;419056;1313;128555;-56
2021/11/26 23:41:20;;;;;;;;;;;;;;;-0.35;83.02;97055.44;428087;1311;128729;-58
2021/11/26 23:51:26;;;;;;;;;;;;;;;-0.38;83.23;97049.94;433619;1316;128717;-58
